Mestre Comboio — CUFU3 — position and weather

sailwx.info

Track history (hours):
 
Tides and Currents Weather Stations Pressure Air Temp Water Temp Dewpoint Dewpoint Depression Visibility Wind Speed Wind Dir Waves Ship Positions

Mestre Comboio

Last reported at 2017-Sep-25 20:01 UTC. Time now 2017-Sep-26 11:11 UTC.
Position N 39°12' W 009°24'.

Length 23 m.

Type: Fishing. MMSI: 263414970.

Date/timePositionNaut miles runAvg speedWind from/ knotsBaromVisibWave heightAir tempDewpointWater temp
2017-Sep-25 20:01N 39°12' W 009°24'010.6
2017-Sep-25 20:00N 39°12' W 009°25'3 4.6
2017-Sep-25 19:24N 39°09' W 009°26'0 0.2
2017-Sep-25 18:44N 39°09' W 009°25'2 7.3
2017-Sep-25 18:30N 39°11' W 009°26'610.9
2017-Sep-25 18:00N 39°16' W 009°24'  
2017-Sep-21 20:23N 39°14' W 009°25'4 9.8
2017-Sep-21 20:00N 39°10' W 009°27'0 0.7
2017-Sep-21 19:30N 39°10' W 009°27'0 0.5
2017-Sep-21 18:42N 39°10' W 009°27'0 1.0
2017-Sep-21 18:13N 39°10' W 009°26'2 7.1
2017-Sep-21 18:00N 39°11' W 009°25'1 0.1
2017-Sep-20 20:25N 39°12' W 009°26'410.2
2017-Sep-20 20:00N 39°08' W 009°28'1 2.7
2017-Sep-20 19:27N 39°07' W 009°29'0 0.5
2017-Sep-20 18:59N 39°07' W 009°29'2 3.7
2017-Sep-20 18:30N 39°07' W 009°27'4 8.0
2017-Sep-20 18:00N 39°11' W 009°24'0 0.0
2017-Sep-19 20:13N 39°11' W 009°25'2 9.9
2017-Sep-19 20:00N 39°09' W 009°26'0 0.5
2017-Sep-19 19:22N 39°09' W 009°26'0 0.5
2017-Sep-19 18:52N 39°09' W 009°25'2 6.0
2017-Sep-19 18:30N 39°11' W 009°24'5 0.2
2017-Sep-18 21:10N 39°16' W 009°25'210.4
2017-Sep-18 20:59N 39°14' W 009°25'510.4
2017-Sep-18 20:30N 39°09' W 009°27'510.1
2017-Sep-18 20:00N 39°05' W 009°30'1 1.3
2017-Sep-18 19:29N 39°04' W 009°30'0 0.8
2017-Sep-18 18:59N 39°04' W 009°30'2 3.4
2017-Sep-18 18:30N 39°03' W 009°30'4 8.9
2017-Sep-18 18:00N 38°58' W 009°28'3 5.2
2017-Sep-18 17:28N 38°56' W 009°28'0 0.3
2017-Sep-18 16:58N 38°56' W 009°28'1 1.9
2017-Sep-18 16:30N 38°57' W 009°28'3 6.5
2017-Sep-18 16:00N 38°53' W 009°28'1 1.9
2017-Sep-18 15:30N 38°54' W 009°27'510.6
2017-Sep-18 15:00N 38°59' W 009°27'611.1
2017-Sep-18 14:30N 39°05' W 009°26'510.6
2017-Sep-18 14:00N 39°09' W 009°23'  
Track history (hours):
 
Tides and Currents Weather Stations Pressure Air Temp Water Temp Dewpoint Dewpoint Depression Visibility Wind Speed Wind Dir Waves Ship Positions

Mestre Comboio

Last reported at 2017-Sep-25 20:01 UTC. Time now 2017-Sep-26 11:11 UTC.
Position N 39°12' W 009°24'.

Length 23 m.

Type: Fishing. MMSI: 263414970.

Date/timePositionNaut miles runAvg speedWind from/ knotsBaromVisibWave heightAir tempDewpointWater temp
2017-Sep-25 20:01N 39°12' W 009°24'010.6
2017-Sep-25 20:00N 39°12' W 009°25'3 4.6
2017-Sep-25 19:24N 39°09' W 009°26'0 0.2
2017-Sep-25 18:44N 39°09' W 009°25'2 7.3
2017-Sep-25 18:30N 39°11' W 009°26'610.9
2017-Sep-25 18:00N 39°16' W 009°24'  
2017-Sep-21 20:23N 39°14' W 009°25'4 9.8
2017-Sep-21 20:00N 39°10' W 009°27'0 0.7
2017-Sep-21 19:30N 39°10' W 009°27'0 0.5
2017-Sep-21 18:42N 39°10' W 009°27'0 1.0
2017-Sep-21 18:13N 39°10' W 009°26'2 7.1
2017-Sep-21 18:00N 39°11' W 009°25'1 0.1
2017-Sep-20 20:25N 39°12' W 009°26'410.2
2017-Sep-20 20:00N 39°08' W 009°28'1 2.7
2017-Sep-20 19:27N 39°07' W 009°29'0 0.5
2017-Sep-20 18:59N 39°07' W 009°29'2 3.7
2017-Sep-20 18:30N 39°07' W 009°27'4 8.0
2017-Sep-20 18:00N 39°11' W 009°24'0 0.0
2017-Sep-19 20:13N 39°11' W 009°25'2 9.9
2017-Sep-19 20:00N 39°09' W 009°26'0 0.5
2017-Sep-19 19:22N 39°09' W 009°26'0 0.5
2017-Sep-19 18:52N 39°09' W 009°25'2 6.0
2017-Sep-19 18:30N 39°11' W 009°24'5 0.2
2017-Sep-18 21:10N 39°16' W 009°25'210.4
2017-Sep-18 20:59N 39°14' W 009°25'510.4
2017-Sep-18 20:30N 39°09' W 009°27'510.1
2017-Sep-18 20:00N 39°05' W 009°30'1 1.3
2017-Sep-18 19:29N 39°04' W 009°30'0 0.8
2017-Sep-18 18:59N 39°04' W 009°30'2 3.4
2017-Sep-18 18:30N 39°03' W 009°30'4 8.9
2017-Sep-18 18:00N 38°58' W 009°28'3 5.2
2017-Sep-18 17:28N 38°56' W 009°28'0 0.3
2017-Sep-18 16:58N 38°56' W 009°28'1 1.9
2017-Sep-18 16:30N 38°57' W 009°28'3 6.5
2017-Sep-18 16:00N 38°53' W 009°28'1 1.9
2017-Sep-18 15:30N 38°54' W 009°27'510.6
2017-Sep-18 15:00N 38°59' W 009°27'611.1
2017-Sep-18 14:30N 39°05' W 009°26'510.6
2017-Sep-18 14:00N 39°09' W 009°23'  

Dump ship's entire track history